sensor_id;sensor_type;location;lat;lon;timestamp;temperature;humidity
18207;DHT22;9229;52.354;20.886;2023-04-03T00:00:00;2.40;99.90
18207;DHT22;9229;52.354;20.886;2023-04-03T00:05:07;1.90;99.90
18207;DHT22;9229;52.354;20.886;2023-04-03T00:10:12;1.60;99.90
18207;DHT22;9229;52.354;20.886;2023-04-03T00:15:17;1.80;99.90
18207;DHT22;9229;52.354;20.886;2023-04-03T00:20:20;1.70;99.90
18207;DHT22;9229;52.354;20.886;2023-04-03T00:25:22;1.30;99.90
18207;DHT22;9229;52.354;20.886;2023-04-03T00:30:30;1.50;99.90
18207;DHT22;9229;52.354;20.886;2023-04-03T00:35:34;1.50;99.90
18207;DHT22;9229;52.354;20.886;2023-04-03T00:40:42;1.50;99.90
18207;DHT22;9229;52.354;20.886;2023-04-03T00:45:46;1.50;99.90
18207;DHT22;9229;52.354;20.886;2023-04-03T00:51:00;1.60;99.90
18207;DHT22;9229;52.354;20.886;2023-04-03T00:56:06;1.20;99.90
18207;DHT22;9229;52.354;20.886;2023-04-03T01:01:18;1.10;99.90
18207;DHT22;9229;52.354;20.886;2023-04-03T01:06:26;1.10;99.90
18207;DHT22;9229;52.354;20.886;2023-04-03T01:11:32;1.00;99.90
18207;DHT22;9229;52.354;20.886;2023-04-03T01:16:37;1.00;99.90
18207;DHT22;9229;52.354;20.886;2023-04-03T01:21:59;1.00;99.90
18207;DHT22;9229;52.354;20.886;2023-04-03T01:27:06;0.80;99.90
18207;DHT22;9229;52.354;20.886;2023-04-03T01:32:11;0.80;99.90
18207;DHT22;9229;52.354;20.886;2023-04-03T01:37:13;0.70;99.90
18207;DHT22;9229;52.354;20.886;2023-04-03T01:42:17;0.70;99.90
18207;DHT22;9229;52.354;20.886;2023-04-03T01:47:27;0.60;99.90
18207;DHT22;9229;52.354;20.886;2023-04-03T01:52:30;0.60;99.90
18207;DHT22;9229;52.354;20.886;2023-04-03T01:57:32;0.60;99.90
18207;DHT22;9229;52.354;20.886;2023-04-03T02:02:36;0.50;99.90
18207;DHT22;9229;52.354;20.886;2023-04-03T02:07:38;0.50;99.90
18207;DHT22;9229;52.354;20.886;2023-04-03T02:12:43;0.40;99.90
18207;DHT22;9229;52.354;20.886;2023-04-03T02:17:47;0.30;99.90
18207;DHT22;9229;52.354;20.886;2023-04-03T02:22:50;0.30;99.90
18207;DHT22;9229;52.354;20.886;2023-04-03T02:27:53;0.20;99.90
18207;DHT22;9229;52.354;20.886;2023-04-03T02:32:59;0.20;99.90
18207;DHT22;9229;52.354;20.886;2023-04-03T02:38:01;0.10;99.90
18207;DHT22;9229;52.354;20.886;2023-04-03T02:43:04;0.00;99.90
18207;DHT22;9229;52.354;20.886;2023-04-03T02:48:09;0.00;99.90
18207;DHT22;9229;52.354;20.886;2023-04-03T02:53:12;0.00;99.90
18207;DHT22;9229;52.354;20.886;2023-04-03T02:58:14;-0.20;99.90
18207;DHT22;9229;52.354;20.886;2023-04-03T03:03:19;-0.20;99.90
18207;DHT22;9229;52.354;20.886;2023-04-03T03:08:22;-0.30;99.90
18207;DHT22;9229;52.354;20.886;2023-04-03T03:13:24;-0.40;99.90
18207;DHT22;9229;52.354;20.886;2023-04-03T03:18:33;-0.50;99.90
18207;DHT22;9229;52.354;20.886;2023-04-03T03:23:40;-0.50;99.90
18207;DHT22;9229;52.354;20.886;2023-04-03T03:28:46;-0.60;99.90
18207;DHT22;9229;52.354;20.886;2023-04-03T03:33:59;-0.70;99.90
18207;DHT22;9229;52.354;20.886;2023-04-03T03:39:05;-0.90;99.90
18207;DHT22;9229;52.354;20.886;2023-04-03T03:44:12;-0.70;99.90
18207;DHT22;9229;52.354;20.886;2023-04-03T03:49:16;-0.80;99.90
18207;DHT22;9229;52.354;20.886;2023-04-03T03:54:18;-0.80;99.90
18207;DHT22;9229;52.354;20.886;2023-04-03T03:59:21;-0.80;99.90
18207;DHT22;9229;52.354;20.886;2023-04-03T04:04:26;-0.80;99.90
18207;DHT22;9229;52.354;20.886;2023-04-03T04:09:29;-0.80;99.90
18207;DHT22;9229;52.354;20.886;2023-04-03T04:14:32;-0.80;99.90
18207;DHT22;9229;52.354;20.886;2023-04-03T04:19:38;-0.70;99.90
18207;DHT22;9229;52.354;20.886;2023-04-03T04:24:40;-0.70;99.90
18207;DHT22;9229;52.354;20.886;2023-04-03T04:29:45;-0.60;99.90
18207;DHT22;9229;52.354;20.886;2023-04-03T04:34:49;-0.30;99.90
18207;DHT22;9229;52.354;20.886;2023-04-03T04:39:52;-0.50;99.90
18207;DHT22;9229;52.354;20.886;2023-04-03T04:51:03;-0.30;99.90
18207;DHT22;9229;52.354;20.886;2023-04-03T04:56:10;-0.10;99.90
18207;DHT22;9229;52.354;20.886;2023-04-03T05:01:27;0.00;99.90
18207;DHT22;9229;52.354;20.886;2023-04-03T05:06:42;0.20;99.90
18207;DHT22;9229;52.354;20.886;2023-04-03T05:11:49;0.30;99.90
18207;DHT22;9229;52.354;20.886;2023-04-03T05:16:56;0.40;99.90
18207;DHT22;9229;52.354;20.886;2023-04-03T05:22:07;0.50;99.90
18207;DHT22;9229;52.354;20.886;2023-04-03T05:27:10;0.60;99.90
18207;DHT22;9229;52.354;20.886;2023-04-03T05:32:25;0.70;99.90
18207;DHT22;9229;52.354;20.886;2023-04-03T05:37:53;0.70;99.90
18207;DHT22;9229;52.354;20.886;2023-04-03T05:43:26;0.80;99.90
18207;DHT22;9229;52.354;20.886;2023-04-03T05:48:53;0.80;99.90
18207;DHT22;9229;52.354;20.886;2023-04-03T05:54:06;0.80;99.90
18207;DHT22;9229;52.354;20.886;2023-04-03T05:59:11;0.80;99.90
18207;DHT22;9229;52.354;20.886;2023-04-03T06:04:15;0.90;99.90
18207;DHT22;9229;52.354;20.886;2023-04-03T06:09:23;0.90;99.90
18207;DHT22;9229;52.354;20.886;2023-04-03T06:14:26;1.00;99.90
18207;DHT22;9229;52.354;20.886;2023-04-03T06:19:48;1.10;99.90
18207;DHT22;9229;52.354;20.886;2023-04-03T06:24:52;1.10;99.90
18207;DHT22;9229;52.354;20.886;2023-04-03T06:29:54;1.20;99.90
18207;DHT22;9229;52.354;20.886;2023-04-03T06:34:56;1.20;99.90
18207;DHT22;9229;52.354;20.886;2023-04-03T06:40:03;1.30;99.90
18207;DHT22;9229;52.354;20.886;2023-04-03T06:45:07;1.30;99.90
18207;DHT22;9229;52.354;20.886;2023-04-03T06:50:11;1.50;99.90
18207;DHT22;9229;52.354;20.886;2023-04-03T06:55:16;1.60;99.90
18207;DHT22;9229;52.354;20.886;2023-04-03T07:00:19;1.80;99.90
18207;DHT22;9229;52.354;20.886;2023-04-03T07:05:22;2.70;99.90
18207;DHT22;9229;52.354;20.886;2023-04-03T07:10:25;3.70;99.90
18207;DHT22;9229;52.354;20.886;2023-04-03T07:15:28;4.40;99.90
18207;DHT22;9229;52.354;20.886;2023-04-03T07:20:42;4.80;99.90
18207;DHT22;9229;52.354;20.886;2023-04-03T07:25:48;5.30;97.40
18207;DHT22;9229;52.354;20.886;2023-04-03T07:30:51;5.60;97.10
18207;DHT22;9229;52.354;20.886;2023-04-03T07:35:54;6.10;94.90
18207;DHT22;9229;52.354;20.886;2023-04-03T07:40:57;6.40;92.20
18207;DHT22;9229;52.354;20.886;2023-04-03T07:45:59;6.70;89.70
18207;DHT22;9229;52.354;20.886;2023-04-03T07:51:02;6.80;89.10
18207;DHT22;9229;52.354;20.886;2023-04-03T07:56:07;7.00;86.60
18207;DHT22;9229;52.354;20.886;2023-04-03T08:01:10;7.50;83.80
18207;DHT22;9229;52.354;20.886;2023-04-03T08:06:13;8.00;82.50
18207;DHT22;9229;52.354;20.886;2023-04-03T08:11:17;8.80;78.80
18207;DHT22;9229;52.354;20.886;2023-04-03T08:16:22;9.20;73.50
18207;DHT22;9229;52.354;20.886;2023-04-03T08:21:28;9.30;72.30
18207;DHT22;9229;52.354;20.886;2023-04-03T08:26:32;9.30;70.00
18207;DHT22;9229;52.354;20.886;2023-04-03T08:31:34;9.80;69.30
18207;DHT22;9229;52.354;20.886;2023-04-03T08:36:37;9.80;65.80
18207;DHT22;9229;52.354;20.886;2023-04-03T08:41:42;10.00;62.10
18207;DHT22;9229;52.354;20.886;2023-04-03T08:46:56;10.50;62.40
18207;DHT22;9229;52.354;20.886;2023-04-03T08:52:02;10.40;59.70
18207;DHT22;9229;52.354;20.886;2023-04-03T08:57:09;10.10;60.30
18207;DHT22;9229;52.354;20.886;2023-04-03T09:02:23;10.00;60.60
18207;DHT22;9229;52.354;20.886;2023-04-03T09:07:33;10.40;58.10
18207;DHT22;9229;52.354;20.886;2023-04-03T09:12:42;10.40;57.30
18207;DHT22;9229;52.354;20.886;2023-04-03T09:17:59;9.90;58.20
18207;DHT22;9229;52.354;20.886;2023-04-03T09:23:15;9.90;58.00
18207;DHT22;9229;52.354;20.886;2023-04-03T09:28:20;10.30;56.80
18207;DHT22;9229;52.354;20.886;2023-04-03T09:33:22;11.40;55.20
18207;DHT22;9229;52.354;20.886;2023-04-03T09:38:24;10.90;53.10
18207;DHT22;9229;52.354;20.886;2023-04-03T09:43:30;10.90;52.10
18207;DHT22;9229;52.354;20.886;2023-04-03T09:48:33;10.40;54.60
18207;DHT22;9229;52.354;20.886;2023-04-03T09:53:37;10.80;53.30
18207;DHT22;9229;52.354;20.886;2023-04-03T09:59:19;10.80;54.00
18207;DHT22;9229;52.354;20.886;2023-04-03T10:04:21;10.90;54.20
18207;DHT22;9229;52.354;20.886;2023-04-03T10:09:28;11.10;53.00
18207;DHT22;9229;52.354;20.886;2023-04-03T10:14:32;11.30;54.10
18207;DHT22;9229;52.354;20.886;2023-04-03T10:19:39;12.40;50.60
18207;DHT22;9229;52.354;20.886;2023-04-03T10:25:01;12.00;51.10
18207;DHT22;9229;52.354;20.886;2023-04-03T10:30:19;11.30;51.00
18207;DHT22;9229;52.354;20.886;2023-04-03T10:35:33;12.60;51.90
18207;DHT22;9229;52.354;20.886;2023-04-03T10:40:45;13.90;46.10
18207;DHT22;9229;52.354;20.886;2023-04-03T10:46:00;14.20;46.30
18207;DHT22;9229;52.354;20.886;2023-04-03T10:51:13;12.70;45.50
18207;DHT22;9229;52.354;20.886;2023-04-03T10:56:21;12.80;47.90
18207;DHT22;9229;52.354;20.886;2023-04-03T11:01:29;12.90;46.60
18207;DHT22;9229;52.354;20.886;2023-04-03T11:06:35;13.40;46.40
18207;DHT22;9229;52.354;20.886;2023-04-03T11:11:39;14.00;47.30
18207;DHT22;9229;52.354;20.886;2023-04-03T11:16:47;13.50;45.00
18207;DHT22;9229;52.354;20.886;2023-04-03T11:21:54;12.90;45.00
18207;DHT22;9229;52.354;20.886;2023-04-03T11:27:00;11.80;47.10
18207;DHT22;9229;52.354;20.886;2023-04-03T11:32:29;12.00;47.90
18207;DHT22;9229;52.354;20.886;2023-04-03T11:37:39;11.30;49.20
18207;DHT22;9229;52.354;20.886;2023-04-03T11:42:46;11.10;47.30
18207;DHT22;9229;52.354;20.886;2023-04-03T11:47:51;10.60;48.80
18207;DHT22;9229;52.354;20.886;2023-04-03T11:53:31;10.00;49.10
18207;DHT22;9229;52.354;20.886;2023-04-03T11:58:36;10.40;48.70
18207;DHT22;9229;52.354;20.886;2023-04-03T12:04:08;11.30;49.30
18207;DHT22;9229;52.354;20.886;2023-04-03T12:09:33;12.20;47.70
18207;DHT22;9229;52.354;20.886;2023-04-03T12:14:42;12.60;47.50
18207;DHT22;9229;52.354;20.886;2023-04-03T12:20:01;12.90;45.40
18207;DHT22;9229;52.354;20.886;2023-04-03T12:25:46;12.50;46.40
18207;DHT22;9229;52.354;20.886;2023-04-03T12:30:50;11.90;46.70
18207;DHT22;9229;52.354;20.886;2023-04-03T12:36:02;12.20;47.30
18207;DHT22;9229;52.354;20.886;2023-04-03T12:41:21;12.40;46.70
18207;DHT22;9229;52.354;20.886;2023-04-03T12:46:32;12.50;45.00
18207;DHT22;9229;52.354;20.886;2023-04-03T12:51:39;11.40;43.60
18207;DHT22;9229;52.354;20.886;2023-04-03T12:56:42;11.40;46.20
18207;DHT22;9229;52.354;20.886;2023-04-03T13:01:53;11.10;45.90
18207;DHT22;9229;52.354;20.886;2023-04-03T13:06:59;10.50;46.20
18207;DHT22;9229;52.354;20.886;2023-04-03T13:12:10;9.80;47.40
18207;DHT22;9229;52.354;20.886;2023-04-03T13:17:15;9.40;49.00
18207;DHT22;9229;52.354;20.886;2023-04-03T13:22:28;9.70;49.80
18207;DHT22;9229;52.354;20.886;2023-04-03T13:27:33;10.10;47.20
18207;DHT22;9229;52.354;20.886;2023-04-03T13:32:36;9.90;48.20
18207;DHT22;9229;52.354;20.886;2023-04-03T13:37:39;9.40;48.50
18207;DHT22;9229;52.354;20.886;2023-04-03T13:43:03;9.40;49.20
18207;DHT22;9229;52.354;20.886;2023-04-03T13:48:16;9.20;49.60
18207;DHT22;9229;52.354;20.886;2023-04-03T13:53:20;9.00;50.10
18207;DHT22;9229;52.354;20.886;2023-04-03T13:58:24;9.00;49.80
18207;DHT22;9229;52.354;20.886;2023-04-03T14:03:40;9.00;50.20
18207;DHT22;9229;52.354;20.886;2023-04-03T14:08:47;9.00;50.20
18207;DHT22;9229;52.354;20.886;2023-04-03T14:13:51;8.90;50.90
18207;DHT22;9229;52.354;20.886;2023-04-03T14:18:55;8.50;51.50
18207;DHT22;9229;52.354;20.886;2023-04-03T14:23:58;8.20;52.30
18207;DHT22;9229;52.354;20.886;2023-04-03T14:29:02;8.00;52.40
18207;DHT22;9229;52.354;20.886;2023-04-03T14:34:04;8.10;53.40
18207;DHT22;9229;52.354;20.886;2023-04-03T14:39:17;8.30;53.40
18207;DHT22;9229;52.354;20.886;2023-04-03T14:44:21;8.20;52.40
18207;DHT22;9229;52.354;20.886;2023-04-03T14:49:26;8.00;53.30
18207;DHT22;9229;52.354;20.886;2023-04-03T14:54:31;8.10;53.20
18207;DHT22;9229;52.354;20.886;2023-04-03T14:59:34;8.10;52.80
18207;DHT22;9229;52.354;20.886;2023-04-03T15:04:36;7.90;52.80
18207;DHT22;9229;52.354;20.886;2023-04-03T15:09:40;7.80;53.60
18207;DHT22;9229;52.354;20.886;2023-04-03T15:14:42;7.40;54.20
18207;DHT22;9229;52.354;20.886;2023-04-03T15:19:44;7.30;55.70
18207;DHT22;9229;52.354;20.886;2023-04-03T15:24:48;7.40;56.00
18207;DHT22;9229;52.354;20.886;2023-04-03T15:29:50;7.40;55.90
18207;DHT22;9229;52.354;20.886;2023-04-03T15:34:56;7.20;55.50
18207;DHT22;9229;52.354;20.886;2023-04-03T15:40:02;7.10;55.80
18207;DHT22;9229;52.354;20.886;2023-04-03T15:45:07;6.90;55.40
18207;DHT22;9229;52.354;20.886;2023-04-03T15:50:24;6.80;56.00
18207;DHT22;9229;52.354;20.886;2023-04-03T15:55:30;6.80;56.70
18207;DHT22;9229;52.354;20.886;2023-04-03T16:00:32;6.70;57.10
18207;DHT22;9229;52.354;20.886;2023-04-03T16:05:35;6.60;57.60
18207;DHT22;9229;52.354;20.886;2023-04-03T16:10:40;6.40;57.50
18207;DHT22;9229;52.354;20.886;2023-04-03T16:15:45;6.20;58.20
18207;DHT22;9229;52.354;20.886;2023-04-03T16:20:56;6.00;59.00
18207;DHT22;9229;52.354;20.886;2023-04-03T16:26:01;6.00;59.00
18207;DHT22;9229;52.354;20.886;2023-04-03T16:31:03;5.80;58.80
18207;DHT22;9229;52.354;20.886;2023-04-03T16:36:07;5.70;59.30
18207;DHT22;9229;52.354;20.886;2023-04-03T16:41:10;5.60;60.20
18207;DHT22;9229;52.354;20.886;2023-04-03T16:46:12;5.50;59.20
18207;DHT22;9229;52.354;20.886;2023-04-03T16:51:14;5.30;59.50
18207;DHT22;9229;52.354;20.886;2023-04-03T16:56:18;5.20;60.40
18207;DHT22;9229;52.354;20.886;2023-04-03T17:01:22;5.10;60.00
18207;DHT22;9229;52.354;20.886;2023-04-03T17:06:24;5.00;60.10
18207;DHT22;9229;52.354;20.886;2023-04-03T17:11:30;4.90;60.70
18207;DHT22;9229;52.354;20.886;2023-04-03T17:16:35;4.80;61.30
18207;DHT22;9229;52.354;20.886;2023-04-03T17:21:51;4.70;61.10
18207;DHT22;9229;52.354;20.886;2023-04-03T17:27:06;4.60;62.10
18207;DHT22;9229;52.354;20.886;2023-04-03T17:32:13;4.50;63.00
18207;DHT22;9229;52.354;20.886;2023-04-03T17:37:17;4.40;64.60
18207;DHT22;9229;52.354;20.886;2023-04-03T17:42:21;4.30;63.90
18207;DHT22;9229;52.354;20.886;2023-04-03T17:47:23;4.20;64.60
18207;DHT22;9229;52.354;20.886;2023-04-03T17:52:25;4.20;65.30
18207;DHT22;9229;52.354;20.886;2023-04-03T17:57:34;4.20;65.30
18207;DHT22;9229;52.354;20.886;2023-04-03T18:02:36;4.20;65.90
18207;DHT22;9229;52.354;20.886;2023-04-03T18:07:40;4.10;66.40
18207;DHT22;9229;52.354;20.886;2023-04-03T18:12:43;4.10;66.80
18207;DHT22;9229;52.354;20.886;2023-04-03T18:17:46;4.00;68.00
18207;DHT22;9229;52.354;20.886;2023-04-03T18:23:03;3.90;68.40
18207;DHT22;9229;52.354;20.886;2023-04-03T18:28:07;3.90;69.10
18207;DHT22;9229;52.354;20.886;2023-04-03T18:33:11;3.80;69.50
18207;DHT22;9229;52.354;20.886;2023-04-03T18:38:16;3.80;70.50
18207;DHT22;9229;52.354;20.886;2023-04-03T18:43:20;3.80;71.10
18207;DHT22;9229;52.354;20.886;2023-04-03T18:48:22;3.70;71.60
18207;DHT22;9229;52.354;20.886;2023-04-03T18:53:24;3.80;71.80
18207;DHT22;9229;52.354;20.886;2023-04-03T18:58:30;3.80;72.40
18207;DHT22;9229;52.354;20.886;2023-04-03T19:03:34;3.70;72.60
18207;DHT22;9229;52.354;20.886;2023-04-03T19:08:40;3.60;72.90
18207;DHT22;9229;52.354;20.886;2023-04-03T19:13:44;3.50;73.20
18207;DHT22;9229;52.354;20.886;2023-04-03T19:18:48;3.50;74.10
18207;DHT22;9229;52.354;20.886;2023-04-03T19:23:54;3.40;75.30
18207;DHT22;9229;52.354;20.886;2023-04-03T19:29:09;3.40;75.40
18207;DHT22;9229;52.354;20.886;2023-04-03T19:34:19;3.30;75.40
18207;DHT22;9229;52.354;20.886;2023-04-03T19:39:33;3.30;75.60
18207;DHT22;9229;52.354;20.886;2023-04-03T19:44:50;3.20;75.40
18207;DHT22;9229;52.354;20.886;2023-04-03T19:49:55;3.20;75.60
18207;DHT22;9229;52.354;20.886;2023-04-03T19:55:09;3.10;75.70
18207;DHT22;9229;52.354;20.886;2023-04-03T20:00:24;3.10;75.80
18207;DHT22;9229;52.354;20.886;2023-04-03T20:05:38;3.00;76.10
18207;DHT22;9229;52.354;20.886;2023-04-03T20:10:43;3.00;76.10
18207;DHT22;9229;52.354;20.886;2023-04-03T20:15:52;2.80;76.60
18207;DHT22;9229;52.354;20.886;2023-04-03T20:20:59;2.80;76.60
18207;DHT22;9229;52.354;20.886;2023-04-03T20:26:05;2.80;77.10
18207;DHT22;9229;52.354;20.886;2023-04-03T20:31:23;2.80;76.90
18207;DHT22;9229;52.354;20.886;2023-04-03T20:36:26;2.70;77.10
18207;DHT22;9229;52.354;20.886;2023-04-03T20:41:31;2.70;77.50
18207;DHT22;9229;52.354;20.886;2023-04-03T20:46:52;2.60;77.70
18207;DHT22;9229;52.354;20.886;2023-04-03T20:51:57;2.60;78.40
18207;DHT22;9229;52.354;20.886;2023-04-03T20:57:02;2.60;78.40
18207;DHT22;9229;52.354;20.886;2023-04-03T21:02:10;2.40;79.00
18207;DHT22;9229;52.354;20.886;2023-04-03T21:24:00;2.20;80.20
18207;DHT22;9229;52.354;20.886;2023-04-03T21:29:06;2.10;81.20
18207;DHT22;9229;52.354;20.886;2023-04-03T21:34:09;2.00;81.50
18207;DHT22;9229;52.354;20.886;2023-04-03T21:39:13;2.00;82.10
18207;DHT22;9229;52.354;20.886;2023-04-03T21:44:15;2.00;82.90
18207;DHT22;9229;52.354;20.886;2023-04-03T21:49:19;1.90;83.50
18207;DHT22;9229;52.354;20.886;2023-04-03T21:54:23;1.90;83.60
18207;DHT22;9229;52.354;20.886;2023-04-03T21:59:27;1.80;83.80
18207;DHT22;9229;52.354;20.886;2023-04-03T22:04:31;1.80;84.50
18207;DHT22;9229;52.354;20.886;2023-04-03T22:09:32;1.70;84.50
18207;DHT22;9229;52.354;20.886;2023-04-03T22:14:35;1.60;85.10
18207;DHT22;9229;52.354;20.886;2023-04-03T22:19:43;1.60;85.80
18207;DHT22;9229;52.354;20.886;2023-04-03T22:24:59;1.50;86.20
18207;DHT22;9229;52.354;20.886;2023-04-03T22:30:08;1.40;86.40
18207;DHT22;9229;52.354;20.886;2023-04-03T22:35:28;1.30;87.20
18207;DHT22;9229;52.354;20.886;2023-04-03T22:40:30;1.30;88.00
18207;DHT22;9229;52.354;20.886;2023-04-03T22:45:33;1.20;88.30
18207;DHT22;9229;52.354;20.886;2023-04-03T22:50:36;1.20;88.60
18207;DHT22;9229;52.354;20.886;2023-04-03T22:55:39;1.10;88.70
18207;DHT22;9229;52.354;20.886;2023-04-03T23:00:41;1.10;89.50
18207;DHT22;9229;52.354;20.886;2023-04-03T23:05:45;1.00;89.90
18207;DHT22;9229;52.354;20.886;2023-04-03T23:10:47;1.00;90.50
18207;DHT22;9229;52.354;20.886;2023-04-03T23:15:52;0.90;90.80
18207;DHT22;9229;52.354;20.886;2023-04-03T23:20:58;0.80;91.10
18207;DHT22;9229;52.354;20.886;2023-04-03T23:26:01;0.70;91.50
18207;DHT22;9229;52.354;20.886;2023-04-03T23:31:04;0.60;91.90
18207;DHT22;9229;52.354;20.886;2023-04-03T23:36:08;0.50;92.40
18207;DHT22;9229;52.354;20.886;2023-04-03T23:41:15;0.40;92.80
18207;DHT22;9229;52.354;20.886;2023-04-03T23:46:17;0.40;93.30
18207;DHT22;9229;52.354;20.886;2023-04-03T23:51:20;0.30;94.00
18207;DHT22;9229;52.354;20.886;2023-04-03T23:56:22;0.20;94.50
